createdAt,value
2023-06-11T00:01:28.873Z,21.90
2023-06-11T00:03:56.144Z,21.90
2023-06-11T00:06:24.251Z,21.90
2023-06-11T00:08:53.718Z,21.90
2023-06-11T00:11:21.335Z,21.80
2023-06-11T00:13:48.498Z,21.80
2023-06-11T00:16:15.891Z,21.80
2023-06-11T00:18:43.273Z,21.80
2023-06-11T00:21:11.321Z,21.70
2023-06-11T00:23:38.808Z,21.70
2023-06-11T00:26:09.043Z,21.70
2023-06-11T00:28:36.119Z,21.70
2023-06-11T00:31:04.905Z,21.60
2023-06-11T00:33:31.819Z,21.60
2023-06-11T00:35:58.814Z,21.60
2023-06-11T00:38:25.727Z,21.60
2023-06-11T00:40:52.635Z,21.60
2023-06-11T00:43:22.660Z,21.60
2023-06-11T00:45:52.980Z,21.60
2023-06-11T00:48:23.088Z,21.50
2023-06-11T00:50:50.999Z,21.50
2023-06-11T00:53:19.039Z,21.50
2023-06-11T00:55:46.598Z,21.40
2023-06-11T00:58:18.582Z,21.40
2023-06-11T01:00:48.505Z,21.40
2023-06-11T01:03:19.263Z,21.40
2023-06-11T01:06:03.323Z,21.40
2023-06-11T01:08:31.450Z,21.40
2023-06-11T01:11:02.824Z,21.30
2023-06-11T01:13:30.077Z,21.30
2023-06-11T01:16:03.568Z,21.20
2023-06-11T01:18:32.132Z,21.20
2023-06-11T01:21:11.030Z,21.10
2023-06-11T01:23:42.770Z,21.10
2023-06-11T01:26:17.622Z,21.10
2023-06-11T01:28:46.320Z,21.00
2023-06-11T01:31:15.950Z,21.00
2023-06-11T01:33:46.013Z,21.00
2023-06-11T01:36:12.957Z,21.00
2023-06-11T01:38:43.494Z,20.90
2023-06-11T01:41:12.261Z,20.90
2023-06-11T01:43:39.275Z,20.90
2023-06-11T01:46:06.818Z,20.80
2023-06-11T01:48:34.031Z,20.80
2023-06-11T01:51:01.344Z,20.80
2023-06-11T01:53:28.303Z,20.70
2023-06-11T01:55:58.048Z,20.70
2023-06-11T01:58:25.028Z,20.60
2023-06-11T02:00:51.923Z,20.70
2023-06-11T02:03:19.055Z,20.60
2023-06-11T02:05:46.406Z,20.60
2023-06-11T02:08:13.284Z,20.60
2023-06-11T02:10:40.217Z,20.60
2023-06-11T02:13:07.073Z,20.50
2023-06-11T02:15:33.920Z,20.50
2023-06-11T02:18:00.860Z,20.40
2023-06-11T02:20:27.932Z,20.40
2023-06-11T02:22:54.852Z,20.40
2023-06-11T02:25:21.822Z,20.40
2023-06-11T02:27:50.332Z,20.40
2023-06-11T02:30:17.437Z,20.30
2023-06-11T02:32:45.615Z,20.30
2023-06-11T02:35:12.782Z,20.30
2023-06-11T02:37:39.998Z,20.30
2023-06-11T02:40:07.479Z,20.20
2023-06-11T02:42:34.320Z,20.20
2023-06-11T02:45:01.201Z,20.20
2023-06-11T02:47:28.121Z,20.20
2023-06-11T02:49:55.350Z,20.20
2023-06-11T02:52:22.550Z,20.10
2023-06-11T02:54:49.437Z,20.10
2023-06-11T02:57:16.355Z,20.10
2023-06-11T02:59:43.243Z,20.10
2023-06-11T03:02:10.171Z,20.10
2023-06-11T03:04:37.461Z,20.10
2023-06-11T03:07:04.724Z,20.10
2023-06-11T03:09:31.573Z,20.10
2023-06-11T03:11:58.434Z,20.00
2023-06-11T03:14:27.356Z,20.00
2023-06-11T03:16:54.332Z,19.90
2023-06-11T03:19:21.268Z,19.90
2023-06-11T03:21:48.584Z,19.90
2023-06-11T03:24:15.660Z,19.90
2023-06-11T03:26:42.760Z,19.90
2023-06-11T03:29:09.692Z,19.80
2023-06-11T03:31:36.679Z,19.70
2023-06-11T03:34:04.471Z,19.70
2023-06-11T03:36:31.380Z,19.70
2023-06-11T03:38:58.227Z,19.70
2023-06-11T03:41:25.075Z,19.70
2023-06-11T03:43:51.970Z,19.60
2023-06-11T03:46:20.968Z,19.80
2023-06-11T03:48:48.002Z,19.80
2023-06-11T03:51:15.723Z,19.80
2023-06-11T03:53:42.668Z,19.80
2023-06-11T03:56:09.506Z,19.80
2023-06-11T03:58:36.420Z,19.70
2023-06-11T04:01:03.351Z,19.70
2023-06-11T04:03:30.414Z,19.70
2023-06-11T04:05:57.393Z,19.80
2023-06-11T04:08:24.291Z,19.80
2023-06-11T04:10:51.259Z,19.80
2023-06-11T04:13:18.141Z,19.80
2023-06-11T04:15:45.029Z,19.90
2023-06-11T04:18:12.668Z,19.90
2023-06-11T04:20:39.582Z,20.00
2023-06-11T04:23:07.735Z,20.20
2023-06-11T04:25:37.442Z,20.30
2023-06-11T04:28:04.538Z,20.50
2023-06-11T04:30:32.689Z,20.80
2023-06-11T04:32:59.645Z,20.90
2023-06-11T04:35:26.643Z,20.90
2023-06-11T04:37:54.652Z,21.00
2023-06-11T04:40:21.982Z,21.00
2023-06-11T04:42:49.582Z,20.90
2023-06-11T04:45:20.284Z,20.80
2023-06-11T04:47:47.596Z,20.70
2023-06-11T04:50:22.223Z,20.60
2023-06-11T04:52:52.903Z,20.60
2023-06-11T04:55:22.842Z,20.70
2023-06-11T04:57:50.835Z,20.70
2023-06-11T05:00:18.510Z,20.80
2023-06-11T05:02:46.011Z,20.80
2023-06-11T05:05:14.401Z,20.80
2023-06-11T05:07:42.999Z,20.80
2023-06-11T05:10:10.194Z,20.80
2023-06-11T05:12:38.113Z,20.90
2023-06-11T05:15:05.582Z,21.00
2023-06-11T05:17:34.198Z,21.10
2023-06-11T05:20:01.152Z,21.20
2023-06-11T05:22:28.183Z,21.20
2023-06-11T05:24:55.157Z,21.30
2023-06-11T05:27:23.176Z,21.30
2023-06-11T05:29:50.057Z,21.40
2023-06-11T05:32:17.259Z,21.40
2023-06-11T05:34:44.420Z,21.50
2023-06-11T05:37:11.458Z,21.60
2023-06-11T05:39:38.368Z,21.70
2023-06-11T05:42:05.499Z,21.80
2023-06-11T05:44:32.368Z,21.80
2023-06-11T05:46:59.410Z,21.90
2023-06-11T05:49:26.395Z,22.00
2023-06-11T05:51:53.419Z,22.10
2023-06-11T05:54:20.845Z,22.10
2023-06-11T05:56:47.913Z,22.20
2023-06-11T05:59:14.828Z,22.20
2023-06-11T06:01:46.472Z,22.30
2023-06-11T06:04:15.297Z,22.30
2023-06-11T06:06:42.265Z,22.40
2023-06-11T06:09:09.124Z,22.40
2023-06-11T06:11:36.101Z,22.40
2023-06-11T06:14:04.272Z,22.50
2023-06-11T06:16:32.796Z,22.60
2023-06-11T06:18:59.976Z,22.70
2023-06-11T06:21:26.934Z,22.80
2023-06-11T06:23:53.945Z,22.80
2023-06-11T06:26:24.099Z,22.90
2023-06-11T06:28:51.112Z,23.00
2023-06-11T06:31:18.159Z,23.10
2023-06-11T06:33:46.154Z,23.20
2023-06-11T06:36:13.132Z,23.30
2023-06-11T06:38:41.635Z,23.50
2023-06-11T06:41:08.624Z,23.50
2023-06-11T06:43:35.989Z,23.70
2023-06-11T06:46:02.953Z,23.70
2023-06-11T06:48:29.985Z,24.00
2023-06-11T06:50:57.167Z,24.00
2023-06-11T06:53:24.070Z,24.20
2023-06-11T06:55:53.326Z,24.30
2023-06-11T06:58:20.618Z,24.30
2023-06-11T07:00:47.560Z,24.30
2023-06-11T07:03:17.300Z,24.50
2023-06-11T07:05:44.966Z,24.60
2023-06-11T07:08:13.467Z,24.60
2023-06-11T07:10:44.054Z,24.70
2023-06-11T07:13:14.096Z,24.80
2023-06-11T07:15:41.070Z,25.00
2023-06-11T07:18:08.025Z,25.00
2023-06-11T07:20:35.036Z,25.10
2023-06-11T07:23:02.028Z,25.10
2023-06-11T07:25:32.084Z,25.20
2023-06-11T07:28:02.608Z,25.30
2023-06-11T07:30:31.283Z,25.30
2023-06-11T07:32:58.595Z,25.40
2023-06-11T07:35:25.794Z,25.50
2023-06-11T07:37:52.757Z,25.60
2023-06-11T07:40:20.913Z,25.70
2023-06-11T07:42:48.063Z,25.80
2023-06-11T07:45:16.343Z,25.90
2023-06-11T07:47:43.433Z,26.00
2023-06-11T07:50:11.437Z,26.00
2023-06-11T07:52:38.531Z,26.00
2023-06-11T07:55:05.986Z,26.10
2023-06-11T07:57:32.831Z,26.30
2023-06-11T07:59:59.692Z,26.30
2023-06-11T08:02:27.748Z,26.30
2023-06-11T08:04:54.809Z,26.50
2023-06-11T08:07:21.715Z,26.60
2023-06-11T08:09:48.652Z,26.70
2023-06-11T08:12:15.578Z,26.80
2023-06-11T08:14:42.453Z,27.00
2023-06-11T08:17:10.089Z,27.10
2023-06-11T08:19:37.141Z,27.10
2023-06-11T08:22:04.119Z,27.20
2023-06-11T08:24:32.024Z,27.30
2023-06-11T08:26:59.020Z,27.50
2023-06-11T08:29:25.962Z,27.50
2023-06-11T08:31:52.930Z,27.40
2023-06-11T08:34:19.967Z,27.50
2023-06-11T08:36:46.978Z,27.60
2023-06-11T08:39:14.325Z,27.70
2023-06-11T08:41:41.237Z,27.90
2023-06-11T08:44:08.092Z,28.10
2023-06-11T08:46:36.665Z,28.20
2023-06-11T08:49:07.947Z,28.30
2023-06-11T08:51:38.894Z,28.40
2023-06-11T08:54:09.355Z,28.50
2023-06-11T08:56:36.349Z,28.50
2023-06-11T08:59:03.419Z,28.40
2023-06-11T09:01:31.206Z,28.30
2023-06-11T09:03:58.740Z,28.40
2023-06-11T09:06:25.864Z,28.60
2023-06-11T09:08:59.940Z,28.90
2023-06-11T09:11:37.511Z,29.00
2023-06-11T09:14:04.919Z,28.90
2023-06-11T09:16:45.513Z,29.10
2023-06-11T09:19:13.976Z,29.20
2023-06-11T09:21:54.759Z,29.00
2023-06-11T09:24:22.299Z,28.90
2023-06-11T09:26:56.810Z,28.90
2023-06-11T09:29:24.347Z,29.00
2023-06-11T09:32:10.057Z,29.20
2023-06-11T09:34:43.078Z,29.30
2023-06-11T09:37:13.031Z,29.50
2023-06-11T09:39:41.112Z,29.70
2023-06-11T09:42:13.583Z,29.50
2023-06-11T09:44:40.690Z,29.20
2023-06-11T09:47:10.501Z,29.30
2023-06-11T09:49:37.601Z,29.50
2023-06-11T09:52:04.876Z,29.60
2023-06-11T09:54:31.790Z,29.60
2023-06-11T09:56:58.811Z,29.50
2023-06-11T09:59:25.733Z,29.50
2023-06-11T10:01:52.682Z,29.60
2023-06-11T10:04:19.634Z,29.70
2023-06-11T10:06:48.088Z,29.70
2023-06-11T10:09:15.586Z,30.00
2023-06-11T10:11:42.562Z,30.10
2023-06-11T10:14:13.741Z,30.10
2023-06-11T10:16:40.950Z,30.20
2023-06-11T10:19:08.950Z,30.10
2023-06-11T10:21:50.517Z,30.20
2023-06-11T10:24:24.705Z,30.40
2023-06-11T10:27:13.887Z,30.50
2023-06-11T10:29:51.139Z,30.60
2023-06-11T10:32:21.740Z,30.30
2023-06-11T10:35:05.976Z,30.30
2023-06-11T10:37:38.306Z,30.30
2023-06-11T10:40:07.233Z,30.20
2023-06-11T10:42:39.129Z,30.20
2023-06-11T10:45:15.578Z,30.20
2023-06-11T10:47:50.922Z,30.30
2023-06-11T10:50:24.917Z,30.30
2023-06-11T10:52:52.938Z,30.40
2023-06-11T10:55:21.734Z,30.40
2023-06-11T10:57:55.195Z,30.60
2023-06-11T11:00:22.714Z,30.60
2023-06-11T11:02:50.036Z,30.70
2023-06-11T11:05:17.634Z,30.80
2023-06-11T11:07:47.267Z,30.80
2023-06-11T11:10:20.601Z,30.90
2023-06-11T11:12:48.486Z,30.90
2023-06-11T11:15:15.664Z,31.20
2023-06-11T11:17:43.579Z,31.30
2023-06-11T11:20:15.433Z,31.30
2023-06-11T11:22:42.417Z,31.40
2023-06-11T11:25:10.625Z,31.30
2023-06-11T11:27:40.271Z,31.50
2023-06-11T11:30:07.863Z,31.60
2023-06-11T11:32:36.139Z,31.70
2023-06-11T11:35:04.828Z,32.00
2023-06-11T11:37:32.096Z,32.10
2023-06-11T11:40:08.341Z,32.10
2023-06-11T11:42:51.722Z,31.90
2023-06-11T11:45:22.655Z,31.80
2023-06-11T11:47:53.342Z,31.80
2023-06-11T11:50:28.398Z,31.90
2023-06-11T11:53:05.393Z,31.90
2023-06-11T11:55:56.238Z,31.90
2023-06-11T11:58:28.883Z,32.00
2023-06-11T12:00:59.338Z,31.90
2023-06-11T12:03:28.189Z,31.90
2023-06-11T12:06:05.320Z,31.80
2023-06-11T12:08:32.858Z,31.70
2023-06-11T12:11:00.514Z,31.70
2023-06-11T12:13:27.410Z,31.70
2023-06-11T12:15:54.479Z,31.70
2023-06-11T12:18:21.576Z,31.70
2023-06-11T12:20:48.476Z,31.60
2023-06-11T12:23:15.717Z,31.70
2023-06-11T12:25:43.803Z,31.90
2023-06-11T12:28:10.830Z,31.90
2023-06-11T12:30:37.720Z,31.70
2023-06-11T12:33:04.733Z,31.70
2023-06-11T12:35:31.842Z,31.90
2023-06-11T12:37:59.068Z,32.20
2023-06-11T12:40:26.276Z,32.20
2023-06-11T12:42:58.274Z,32.10
2023-06-11T12:45:26.858Z,32.00
2023-06-11T12:47:54.013Z,32.10
2023-06-11T12:50:25.116Z,32.10
2023-06-11T12:52:54.657Z,32.20
2023-06-11T12:55:21.932Z,32.20
2023-06-11T12:57:50.137Z,31.80
2023-06-11T13:00:17.402Z,31.90
2023-06-11T13:02:45.307Z,32.10
2023-06-11T13:05:12.476Z,32.30
2023-06-11T13:07:39.414Z,32.40
2023-06-11T13:10:06.752Z,32.40
2023-06-11T13:12:34.023Z,32.40
2023-06-11T13:15:01.008Z,32.30
2023-06-11T13:17:28.150Z,32.10
2023-06-11T13:19:56.413Z,32.00
2023-06-11T13:22:23.512Z,31.90
2023-06-11T13:24:50.704Z,31.80
2023-06-11T13:27:17.712Z,32.00
2023-06-11T13:29:44.677Z,31.60
2023-06-11T13:32:11.606Z,31.00
2023-06-11T13:34:38.963Z,30.90
2023-06-11T13:37:06.254Z,30.90
2023-06-11T13:39:34.218Z,30.80
2023-06-11T13:42:02.375Z,30.50
2023-06-11T13:44:29.314Z,30.30
2023-06-11T13:46:56.222Z,30.00
2023-06-11T13:49:26.562Z,30.00
2023-06-11T13:51:55.184Z,30.20
2023-06-11T13:54:22.153Z,30.20
2023-06-11T13:56:49.068Z,29.70
2023-06-11T13:59:16.091Z,28.70
2023-06-11T14:01:43.343Z,28.00
2023-06-11T14:04:10.939Z,28.00
2023-06-11T14:06:38.036Z,28.30
2023-06-11T14:09:05.467Z,28.40
2023-06-11T14:11:32.607Z,28.40
2023-06-11T14:14:00.403Z,28.40
2023-06-11T14:16:28.269Z,28.60
2023-06-11T14:18:55.237Z,28.60
2023-06-11T14:21:22.237Z,28.20
2023-06-11T14:23:49.330Z,28.30
2023-06-11T14:26:16.264Z,28.60
2023-06-11T14:28:43.188Z,28.50
2023-06-11T14:31:10.120Z,28.50
2023-06-11T14:33:38.090Z,28.50
2023-06-11T14:36:07.307Z,28.60
2023-06-11T14:38:34.920Z,28.80
2023-06-11T14:41:01.858Z,28.80
2023-06-11T14:43:28.769Z,28.20
2023-06-11T14:45:55.865Z,28.20
2023-06-11T14:48:22.767Z,28.20
2023-06-11T14:50:49.686Z,28.20
2023-06-11T14:53:16.760Z,28.30
2023-06-11T14:55:44.227Z,27.90
2023-06-11T14:58:11.261Z,27.80
2023-06-11T15:00:38.257Z,27.90
2023-06-11T15:03:05.238Z,27.80
2023-06-11T15:05:32.328Z,27.70
2023-06-11T15:07:59.213Z,27.80
2023-06-11T15:10:27.529Z,27.70
2023-06-11T15:12:56.090Z,27.40
2023-06-11T15:15:23.132Z,27.40
2023-06-11T15:17:50.094Z,27.50
2023-06-11T15:20:16.971Z,27.80
2023-06-11T15:22:44.033Z,27.80
2023-06-11T15:25:10.969Z,28.00
2023-06-11T15:27:37.974Z,27.80
2023-06-11T15:30:05.707Z,27.50
2023-06-11T15:32:32.626Z,27.40
2023-06-11T15:34:59.636Z,27.20
2023-06-11T15:37:26.550Z,27.40
2023-06-11T15:39:53.592Z,27.70
2023-06-11T15:42:20.704Z,27.70
2023-06-11T15:44:49.790Z,27.50
2023-06-11T15:47:17.590Z,27.50
2023-06-11T15:49:44.602Z,27.70
2023-06-11T15:52:11.528Z,27.80
2023-06-11T15:54:38.693Z,27.30
2023-06-11T15:57:07.395Z,27.30
2023-06-11T15:59:34.414Z,27.40
2023-06-11T16:02:02.370Z,27.40
2023-06-11T16:04:31.526Z,27.20
2023-06-11T16:07:01.279Z,27.10
2023-06-11T16:09:28.791Z,27.40
2023-06-11T16:11:55.735Z,27.60
2023-06-11T16:14:22.651Z,27.50
2023-06-11T16:16:49.577Z,27.20
2023-06-11T16:19:16.856Z,27.10
2023-06-11T16:21:43.762Z,27.10
2023-06-11T16:24:10.801Z,27.10
2023-06-11T16:26:38.053Z,27.20
2023-06-11T16:29:05.043Z,27.10
2023-06-11T16:31:32.169Z,26.80
2023-06-11T16:34:00.394Z,27.00
2023-06-11T16:36:29.227Z,27.20
2023-06-11T16:38:57.164Z,27.40
2023-06-11T16:41:27.317Z,27.50
2023-06-11T16:43:54.283Z,27.50
2023-06-11T16:46:21.342Z,27.30
2023-06-11T16:48:48.529Z,27.40
2023-06-11T16:51:15.508Z,27.80
2023-06-11T16:53:42.462Z,27.70
2023-06-11T16:56:09.362Z,27.50
2023-06-11T16:58:37.261Z,27.50
2023-06-11T17:01:04.221Z,27.80
2023-06-11T17:03:31.641Z,27.80
2023-06-11T17:05:58.668Z,28.20
2023-06-11T17:08:25.634Z,28.40
2023-06-11T17:10:52.603Z,28.20
2023-06-11T17:13:19.501Z,28.20
2023-06-11T17:15:46.623Z,28.20
2023-06-11T17:18:13.658Z,27.90
2023-06-11T17:20:41.035Z,28.10
2023-06-11T17:23:08.205Z,27.60
2023-06-11T17:25:35.146Z,27.30
2023-06-11T17:28:02.036Z,26.70
2023-06-11T17:30:29.022Z,26.20
2023-06-11T17:32:56.780Z,25.70
2023-06-11T17:35:23.755Z,25.60
2023-06-11T17:37:50.604Z,25.40
2023-06-11T17:40:18.002Z,25.30
2023-06-11T17:42:46.368Z,25.10
2023-06-11T17:45:13.367Z,25.00
2023-06-11T17:47:40.829Z,25.00
2023-06-11T17:50:08.451Z,24.90
2023-06-11T17:52:35.778Z,25.10
2023-06-11T17:55:02.637Z,25.30
2023-06-11T17:57:29.529Z,25.00
2023-06-11T17:59:56.457Z,24.90
2023-06-11T18:02:24.362Z,24.90
2023-06-11T18:04:51.272Z,24.80
2023-06-11T18:07:18.242Z,24.90
2023-06-11T18:09:45.169Z,24.90
2023-06-11T18:12:12.067Z,25.00
2023-06-11T18:14:38.923Z,25.10
2023-06-11T18:17:06.274Z,25.00
2023-06-11T18:19:34.291Z,25.10
2023-06-11T18:22:01.347Z,25.00
2023-06-11T18:24:32.365Z,24.80
2023-06-11T18:26:59.294Z,24.90
2023-06-11T18:29:28.442Z,24.70
2023-06-11T18:31:55.856Z,24.50
2023-06-11T18:34:22.740Z,24.30
2023-06-11T18:36:49.644Z,24.30
2023-06-11T18:39:16.922Z,24.20
2023-06-11T18:41:43.791Z,24.30
2023-06-11T18:44:10.788Z,24.50
2023-06-11T18:46:40.229Z,24.50
2023-06-11T18:49:07.474Z,24.60
2023-06-11T18:51:34.383Z,24.90
2023-06-11T18:54:02.973Z,25.20
2023-06-11T18:56:30.170Z,25.50
2023-06-11T18:58:57.088Z,25.70
2023-06-11T19:01:24.054Z,25.70
2023-06-11T19:03:51.724Z,25.80
2023-06-11T19:06:18.707Z,25.80
2023-06-11T19:08:45.773Z,25.90
2023-06-11T19:11:12.832Z,26.00
2023-06-11T19:13:43.520Z,26.00
2023-06-11T19:16:10.412Z,26.00
2023-06-11T19:18:37.342Z,25.90
2023-06-11T19:21:04.196Z,25.70
2023-06-11T19:23:31.150Z,25.50
2023-06-11T19:25:58.109Z,25.30
2023-06-11T19:28:24.992Z,25.10
2023-06-11T19:30:52.031Z,24.80
2023-06-11T19:33:19.116Z,24.70
2023-06-11T19:35:46.047Z,24.20
2023-06-11T19:38:13.540Z,24.00
2023-06-11T19:40:40.485Z,23.80
2023-06-11T19:43:07.450Z,23.60
2023-06-11T19:45:34.329Z,23.50
2023-06-11T19:48:01.267Z,23.20
2023-06-11T19:50:28.297Z,23.10
2023-06-11T19:52:55.381Z,23.10
2023-06-11T19:55:24.235Z,23.00
2023-06-11T19:57:51.418Z,23.00
2023-06-11T20:00:18.728Z,22.90
2023-06-11T20:02:45.610Z,22.80
2023-06-11T20:05:12.580Z,22.80
2023-06-11T20:07:39.501Z,22.60
2023-06-11T20:10:07.795Z,22.70
2023-06-11T20:12:34.685Z,22.70
2023-06-11T20:15:01.690Z,22.50
2023-06-11T20:17:29.714Z,22.30
2023-06-11T20:19:56.596Z,21.90
2023-06-11T20:22:23.526Z,21.60
2023-06-11T20:24:50.383Z,21.50
2023-06-11T20:27:17.245Z,21.60
2023-06-11T20:29:44.297Z,21.70
2023-06-11T20:32:11.363Z,21.80
2023-06-11T20:34:38.653Z,21.90
2023-06-11T20:37:06.120Z,21.90
2023-06-11T20:39:32.984Z,22.00
2023-06-11T20:41:59.827Z,21.90
2023-06-11T20:44:27.187Z,21.90
2023-06-11T20:46:54.132Z,22.00
2023-06-11T20:49:21.160Z,22.00
2023-06-11T20:51:48.106Z,22.10
2023-06-11T20:54:15.152Z,22.00
2023-06-11T20:56:42.135Z,22.00
2023-06-11T20:59:10.926Z,22.10
2023-06-11T21:01:38.106Z,22.10
2023-06-11T21:04:05.344Z,22.10
2023-06-11T21:06:32.306Z,22.00
2023-06-11T21:08:59.237Z,22.00
2023-06-11T21:11:27.854Z,22.00
2023-06-11T21:14:12.155Z,22.00
2023-06-11T21:16:41.030Z,22.00
2023-06-11T21:19:08.034Z,22.00
2023-06-11T21:21:35.142Z,22.00
2023-06-11T21:24:03.585Z,22.00
2023-06-11T21:26:30.699Z,22.00
2023-06-11T21:28:58.189Z,22.00
2023-06-11T21:31:25.225Z,22.00
2023-06-11T21:33:52.236Z,21.90
2023-06-11T21:36:19.645Z,21.90
2023-06-11T21:38:46.497Z,22.00
2023-06-11T21:41:13.330Z,22.00
2023-06-11T21:43:40.345Z,22.00
2023-06-11T21:46:07.773Z,22.00
2023-06-11T21:48:34.620Z,22.00
2023-06-11T21:51:01.481Z,21.90
2023-06-11T21:53:29.748Z,21.90
2023-06-11T21:55:56.578Z,22.00
2023-06-11T21:58:23.414Z,22.10
2023-06-11T22:00:50.350Z,22.10
2023-06-11T22:03:18.354Z,22.10
2023-06-11T22:05:46.892Z,22.00
2023-06-11T22:08:14.552Z,22.10
2023-06-11T22:10:41.607Z,22.00
2023-06-11T22:13:08.522Z,21.90
2023-06-11T22:15:35.677Z,21.80
2023-06-11T22:18:05.231Z,21.70
2023-06-11T22:20:33.642Z,21.70
2023-06-11T22:23:01.196Z,21.80
2023-06-11T22:25:28.183Z,21.70
2023-06-11T22:27:55.124Z,21.70
2023-06-11T22:30:22.016Z,21.70
2023-06-11T22:32:49.015Z,21.70
2023-06-11T22:35:16.046Z,21.70
2023-06-11T22:37:42.955Z,21.70
2023-06-11T22:40:10.178Z,21.80
2023-06-11T22:42:37.332Z,21.70
2023-06-11T22:45:04.404Z,21.70
2023-06-11T22:47:34.108Z,21.70
2023-06-11T22:50:01.409Z,21.70
2023-06-11T22:52:30.123Z,21.70
2023-06-11T22:54:57.463Z,21.70
2023-06-11T22:57:24.378Z,21.80
2023-06-11T22:59:52.204Z,21.70
2023-06-11T23:02:19.608Z,21.70
2023-06-11T23:04:46.591Z,21.70
2023-06-11T23:07:18.257Z,21.60
2023-06-11T23:09:45.403Z,21.70
2023-06-11T23:12:15.101Z,21.80
2023-06-11T23:14:41.979Z,21.70
2023-06-11T23:17:10.865Z,21.70
2023-06-11T23:19:38.813Z,21.70
2023-06-11T23:22:08.657Z,21.80
2023-06-11T23:24:40.761Z,21.80
2023-06-11T23:27:08.829Z,21.80
2023-06-11T23:29:36.056Z,21.70
2023-06-11T23:32:03.935Z,21.70
2023-06-11T23:34:31.162Z,21.70
2023-06-11T23:36:58.217Z,21.60
2023-06-11T23:39:26.930Z,21.60
2023-06-11T23:41:53.860Z,21.50
2023-06-11T23:44:21.757Z,21.30
2023-06-11T23:46:48.695Z,21.10
2023-06-11T23:49:15.759Z,21.00
2023-06-11T23:51:46.040Z,21.00
2023-06-11T23:54:14.292Z,20.90
2023-06-11T23:56:41.241Z,20.80
2023-06-11T23:59:08.163Z,20.80
